Aviation Digital Data Service (ADDS)

Output produced by METARs form (2043 UTC 08 August 2020)
found at http://www.aviationweather.gov/metar/data/
 
KIWA 081720Z 0818/0918 VRB05KT P6SM FEW100 
     FM081900 27007KT P6SM FEW100 
     FM090800 11006KT P6SM SKC